Estación Meteorológica Peña el Pijo (Robertgarden) [ 09/24/17 17:51:49 CEST ]

Fecha Hora Presion(HPa) Temp (°C) Humedad % Rocio (°C) Viento ( m/s) Direccion Lluvia 1Hora(mm) Lluvia 24H(mm) LLuvia Total(mm)
2017-Sep-12 01:01:45 1009.600 13.6 52 3.9         1457.65
2017-Sep-12 02:01:56 1009.800 12.1 57 3.8         1457.65
2017-Sep-12 03:01:41 1009.500 11.5 61 4.2         1457.65
2017-Sep-12 04:01:39 1009.500 10.8 64 4.2         1457.65
2017-Sep-12 05:03:48 1009.200 9.9 68 4.3         1457.65
2017-Sep-12 06:01:40 1009.100 9.3 70 4.1         1457.65
2017-Sep-12 07:01:50 1009.100 8.7 73 4.1         1457.65
2017-Sep-12 08:01:59 1009.700 8.3 76 4.3         1457.65
2017-Sep-12 09:01:51 1010.100 10.5 80 7.2         1457.65
2017-Sep-12 10:01:57 1010.300 20.6 56 11.5         1457.65
2017-Sep-12 11:01:48 1010.400 26.9 32 8.8         1457.65
2017-Sep-12 12:01:55 1010.600 29.9 23 6.3         1457.65
2017-Sep-12 13:01:59 1010.600 30.7 21 5.8 0.2 SW     1457.65
2017-Sep-12 14:02:05 1010.600 30.6 19 4.2         1457.65
2017-Sep-12 15:01:53 1010.700 31.7 18 4.1         1457.65
2017-Sep-12 16:01:47 1010.500 32.6 18 4.8         1457.65
2017-Sep-12 17:01:44 1010.500 32.9 19 6.0         1457.65
2017-Sep-12 18:01:41 1010.400 31.8 19 5.2         1457.65
2017-Sep-12 19:01:40 1010.800 29.9 20 4.5         1457.65
2017-Sep-12 20:01:45 1011.800 24.8 43 11.3         1457.65
2017-Sep-12 21:01:43 1012.700 21.6 52 11.3         1457.65
2017-Sep-12 22:01:43 1014.300 20.0 66 13.4         1457.65
2017-Sep-12 23:01:42 1014.900 18.1 66 11.6         1457.65

Temperatura Máxima:32°    Temperatura Mínima:
Presión Máxima:1014.900 Hpa    Presión Mínima:1009.100 Hpa


Volver